createdAt,value
2023-01-12T00:01:06.935Z,9.70
2023-01-12T00:03:34.188Z,11.10
2023-01-12T00:06:07.205Z,9.80
2023-01-12T00:08:37.702Z,9.40
2023-01-12T00:11:04.851Z,9.20
2023-01-12T00:13:32.904Z,9.20
2023-01-12T00:16:20.385Z,10.00
2023-01-12T00:18:47.985Z,8.00
2023-01-12T00:21:15.409Z,9.00
2023-01-12T00:23:44.775Z,8.70
2023-01-12T00:26:15.963Z,8.30
2023-01-12T00:28:42.908Z,8.50
2023-01-12T00:31:10.958Z,8.10
2023-01-12T00:33:38.955Z,8.90
2023-01-12T00:36:15.302Z,8.20
2023-01-12T00:38:42.855Z,8.40
2023-01-12T00:41:33.395Z,7.70
2023-01-12T00:44:18.976Z,6.60
2023-01-12T00:46:46.595Z,7.90
2023-01-12T00:49:28.411Z,8.40
2023-01-12T00:51:56.805Z,8.20
2023-01-12T00:54:27.441Z,8.00
2023-01-12T00:56:55.513Z,7.90
2023-01-12T00:59:25.895Z,9.40
2023-01-12T01:01:55.347Z,7.10
2023-01-12T01:04:22.799Z,8.50
2023-01-12T01:06:54.048Z,7.90
2023-01-12T01:09:22.328Z,8.20
2023-01-12T01:11:50.977Z,8.60
2023-01-12T01:14:20.507Z,10.10
2023-01-12T01:16:48.369Z,12.90
2023-01-12T01:19:16.157Z,12.80
2023-01-12T01:21:44.368Z,12.80
2023-01-12T01:24:12.369Z,10.20
2023-01-12T01:26:41.027Z,10.30
2023-01-12T01:29:08.944Z,8.40
2023-01-12T01:31:38.439Z,10.60
2023-01-12T01:34:06.738Z,9.80
2023-01-12T01:36:37.046Z,9.90
2023-01-12T01:39:05.276Z,9.40
2023-01-12T01:41:34.190Z,7.80
2023-01-12T01:44:29.303Z,8.30
2023-01-12T01:46:56.861Z,7.80
2023-01-12T01:49:39.134Z,6.10
2023-01-12T01:52:20.818Z,6.00
2023-01-12T04:04:45.900Z,8.90
2023-01-12T04:07:15.833Z,9.00
2023-01-12T04:09:44.084Z,8.00
2023-01-12T04:12:11.896Z,7.40
2023-01-12T04:14:47.642Z,7.30
2023-01-12T04:17:15.663Z,7.90
2023-01-12T04:19:43.500Z,9.20
2023-01-12T04:22:32.521Z,8.40
2023-01-12T04:25:01.881Z,8.40
2023-01-12T04:27:31.866Z,8.00
2023-01-12T04:29:59.294Z,8.00
2023-01-12T04:32:26.885Z,6.80
2023-01-12T04:34:55.529Z,7.00
2023-01-12T04:37:23.610Z,6.90
2023-01-12T04:39:53.554Z,6.90
2023-01-12T04:42:39.600Z,7.50
2023-01-12T04:45:10.961Z,7.30
2023-01-12T04:47:38.827Z,7.50
2023-01-12T04:50:07.987Z,8.60
2023-01-12T04:52:39.368Z,8.70
2023-01-12T04:55:07.084Z,7.70
2023-01-12T04:57:37.331Z,8.80
2023-01-12T05:00:08.054Z,9.40
2023-01-12T05:02:35.885Z,6.70
2023-01-12T05:05:05.008Z,6.90
2023-01-12T05:07:33.847Z,8.00
2023-01-12T05:10:23.060Z,8.70
2023-01-12T05:12:51.222Z,7.20
2023-01-12T05:15:24.329Z,7.50
2023-01-12T05:17:54.343Z,8.40
2023-01-12T05:20:22.789Z,7.80
2023-01-12T05:22:52.444Z,8.50
2023-01-12T05:25:30.676Z,8.10
2023-01-12T05:28:04.011Z,6.50
2023-01-12T05:30:37.735Z,7.90
2023-01-12T05:33:07.222Z,6.30
2023-01-12T05:35:39.714Z,8.30
2023-01-12T05:38:09.632Z,7.60
2023-01-12T05:40:38.416Z,9.50
2023-01-12T05:43:29.530Z,7.60
2023-01-12T05:45:59.508Z,10.50
2023-01-12T05:48:32.493Z,12.70
2023-01-12T05:53:33.607Z,13.80
2023-01-12T05:56:26.095Z,13.60
2023-01-12T05:58:58.452Z,16.80
2023-01-12T06:01:31.767Z,16.50
2023-01-12T06:06:31.768Z,17.80
2023-01-12T06:09:05.895Z,15.40
2023-01-12T06:11:54.557Z,13.10
2023-01-12T06:14:27.752Z,15.70
2023-01-12T06:16:54.977Z,13.10
2023-01-12T06:19:23.795Z,12.90
2023-01-12T06:21:52.675Z,10.70
2023-01-12T06:24:22.690Z,13.00
2023-01-12T06:26:51.882Z,11.80
2023-01-12T06:29:19.773Z,12.80
2023-01-12T06:31:49.626Z,11.70
2023-01-12T06:34:17.929Z,12.00
2023-01-12T06:36:45.639Z,12.80
2023-01-12T06:39:14.931Z,10.80
2023-01-12T06:42:01.499Z,12.70
2023-01-12T06:44:29.549Z,11.90
2023-01-12T06:46:58.230Z,17.00
2023-01-12T06:49:27.365Z,11.70
2023-01-12T06:51:56.806Z,12.40
2023-01-12T06:54:24.398Z,13.10
2023-01-12T06:56:51.720Z,11.80
2023-01-12T06:59:19.075Z,10.20
2023-01-12T07:01:47.083Z,12.50
2023-01-12T07:04:15.251Z,10.10
2023-01-12T07:06:47.741Z,10.10
2023-01-12T07:09:14.756Z,10.70
2023-01-12T07:11:46.114Z,12.30
2023-01-12T07:14:17.397Z,10.60
2023-01-12T07:16:49.203Z,11.00
2023-01-12T07:19:20.219Z,10.40
2023-01-12T07:21:50.354Z,9.70
2023-01-12T07:24:18.004Z,9.70
2023-01-12T07:26:48.588Z,8.90
2023-01-12T07:29:36.708Z,8.50
2023-01-12T07:32:06.834Z,9.30
2023-01-12T07:34:39.812Z,8.40
2023-01-12T07:37:07.532Z,8.40
2023-01-12T07:39:39.417Z,8.00
2023-01-12T07:44:53.470Z,7.10
2023-01-12T07:47:20.541Z,7.20
2023-01-12T07:49:49.198Z,7.30
2023-01-12T07:52:16.479Z,7.50
2023-01-12T07:54:44.693Z,7.20
2023-01-12T07:57:13.209Z,7.40
2023-01-12T07:59:41.674Z,8.00
2023-01-12T08:02:18.970Z,9.50
2023-01-12T08:04:46.800Z,9.90
2023-01-12T08:07:20.508Z,7.20
2023-01-12T08:09:48.512Z,6.30
2023-01-12T08:12:21.681Z,6.40
2023-01-12T08:14:54.966Z,7.10
2023-01-12T08:17:28.707Z,5.40
2023-01-12T08:20:11.714Z,6.10
2023-01-12T08:23:12.759Z,5.40
2023-01-12T08:26:35.363Z,6.20
2023-01-12T08:29:51.534Z,6.50
2023-01-12T08:32:23.384Z,5.60
2023-01-12T08:34:55.783Z,7.00
2023-01-12T08:37:25.123Z,7.10
2023-01-12T08:39:53.289Z,7.00
2023-01-12T08:42:28.743Z,5.90
2023-01-12T08:45:20.542Z,7.20
2023-01-12T08:47:47.988Z,6.40
2023-01-12T08:50:16.765Z,6.60
2023-01-12T08:52:46.886Z,8.60
2023-01-12T08:55:17.356Z,6.80
2023-01-12T08:57:46.483Z,7.80
2023-01-12T09:00:21.127Z,7.30
2023-01-12T09:02:50.183Z,6.70
2023-01-12T09:05:19.373Z,7.00
2023-01-12T09:07:48.739Z,7.50
2023-01-12T09:10:20.272Z,8.00
2023-01-12T09:13:02.160Z,8.00
2023-01-12T09:15:35.464Z,7.90
2023-01-12T09:18:05.040Z,7.30
2023-01-12T09:20:39.546Z,7.50
2023-01-12T09:23:10.381Z,8.30
2023-01-12T09:25:41.066Z,8.80
2023-01-12T09:28:11.570Z,7.90
2023-01-12T09:30:43.205Z,7.20
2023-01-12T09:33:11.841Z,8.30
2023-01-12T09:35:46.450Z,8.20
2023-01-12T09:38:14.161Z,8.10
2023-01-12T09:40:44.383Z,7.20
2023-01-12T09:43:31.849Z,7.70
2023-01-12T09:46:17.454Z,7.70
2023-01-12T09:48:47.964Z,7.50
2023-01-12T09:51:50.104Z,8.20
2023-01-12T09:54:20.109Z,7.50
2023-01-12T09:57:28.325Z,8.40
2023-01-12T10:00:06.453Z,7.80
2023-01-12T10:02:47.280Z,8.70
2023-01-12T10:05:40.176Z,9.10
2023-01-12T10:08:15.998Z,10.20
2023-01-12T10:10:48.582Z,8.80
2023-01-12T10:13:18.669Z,9.20
2023-01-12T10:15:55.276Z,8.50
2023-01-12T10:18:31.688Z,7.30
2023-01-12T10:20:58.997Z,10.90
2023-01-12T10:23:29.219Z,9.80
2023-01-12T10:26:27.148Z,16.90
2023-01-12T10:28:56.332Z,11.60
2023-01-12T10:31:25.112Z,10.70
2023-01-12T14:13:36.741Z,20.20
2023-01-12T14:16:36.611Z,24.90
2023-01-12T14:19:34.738Z,24.00
2023-01-12T14:22:05.679Z,24.40
2023-01-12T14:25:22.523Z,22.60
2023-01-12T14:28:23.935Z,18.40
2023-01-12T14:31:05.637Z,23.10
2023-01-12T14:33:41.934Z,24.70
2023-01-12T14:36:20.510Z,23.50
2023-01-12T14:38:52.895Z,24.50
2023-01-12T14:41:49.030Z,21.20
2023-01-12T14:44:43.684Z,19.90
2023-01-12T14:47:27.747Z,24.10
2023-01-12T14:50:02.989Z,26.40
2023-01-12T14:52:37.297Z,23.20
2023-01-12T14:55:28.553Z,20.70
2023-01-12T14:57:59.263Z,25.80
2023-01-12T15:02:59.821Z,27.10
2023-01-12T15:05:29.530Z,25.10
2023-01-12T15:08:09.740Z,26.80
2023-01-12T15:10:42.689Z,27.50
2023-01-12T15:13:35.921Z,27.90
2023-01-12T15:16:28.269Z,25.30
2023-01-12T15:22:11.578Z,25.10
2023-01-12T15:25:11.025Z,26.50
2023-01-12T15:27:46.653Z,26.30
2023-01-12T15:33:10.663Z,21.70
2023-01-12T15:35:51.154Z,22.70
2023-01-12T15:38:30.131Z,24.30
2023-01-12T15:41:02.448Z,21.80
2023-01-12T15:43:34.999Z,18.40
2023-01-12T15:46:04.763Z,22.60
2023-01-12T15:48:35.309Z,20.70
2023-01-12T15:51:04.325Z,22.90
2023-01-12T15:53:34.147Z,19.00
2023-01-12T15:56:04.155Z,18.60
2023-01-12T15:58:32.946Z,16.50
2023-01-12T16:01:12.368Z,19.50
2023-01-12T16:04:24.900Z,24.70
2023-01-12T16:06:34.632Z,22.80
2023-01-12T16:09:02.231Z,23.00
2023-01-12T16:11:33.883Z,18.70
2023-01-12T16:14:18.431Z,21.90
2023-01-12T16:16:50.769Z,20.90
2023-01-12T16:19:20.745Z,22.20
2023-01-12T16:21:54.232Z,23.00
2023-01-12T16:24:26.112Z,20.20
2023-01-12T16:26:53.408Z,17.20
2023-01-12T16:29:26.097Z,22.50
2023-01-12T16:32:00.408Z,22.10
2023-01-12T16:34:38.718Z,24.50
2023-01-12T16:37:06.069Z,18.90
2023-01-12T16:39:35.912Z,19.70
2023-01-12T16:42:04.578Z,22.20
2023-01-12T16:44:32.575Z,22.40
2023-01-12T16:47:01.122Z,23.50
2023-01-12T16:49:29.880Z,20.60
2023-01-12T16:52:04.913Z,17.90
2023-01-12T16:54:45.016Z,21.40
2023-01-12T16:57:16.932Z,23.80
2023-01-12T16:59:50.484Z,24.80
2023-01-12T17:02:21.834Z,24.70
2023-01-12T17:04:51.588Z,21.20
2023-01-12T17:07:22.522Z,21.60
2023-01-12T17:09:51.348Z,22.20
2023-01-12T17:12:28.752Z,26.00
2023-01-12T17:15:11.871Z,24.20
2023-01-12T17:17:40.243Z,23.30
2023-01-12T17:20:21.018Z,21.20
2023-01-12T17:22:49.632Z,27.60
2023-01-12T17:25:21.487Z,25.00
2023-01-12T17:27:50.141Z,27.10
2023-01-12T17:30:22.967Z,25.00
2023-01-12T17:32:53.237Z,21.90
2023-01-12T17:35:20.903Z,24.30
2023-01-12T17:37:48.218Z,25.50
2023-01-12T17:40:21.885Z,26.30
2023-01-12T17:43:07.863Z,28.10
2023-01-12T17:45:42.942Z,27.00
2023-01-12T17:48:11.516Z,26.80
2023-01-12T17:50:40.526Z,28.00
2023-01-12T22:13:31.455Z,24.40
2023-01-12T22:16:06.802Z,25.80
2023-01-12T22:18:35.100Z,24.20
2023-01-12T22:21:03.986Z,22.20
2023-01-12T22:23:32.826Z,27.30
2023-01-12T22:26:11.591Z,31.10
2023-01-12T22:28:41.639Z,27.40
2023-01-12T22:31:14.509Z,25.40
2023-01-12T22:33:49.740Z,28.00
2023-01-12T22:36:20.320Z,21.90
2023-01-12T22:38:50.528Z,25.40
2023-01-12T22:41:21.317Z,25.70
2023-01-12T22:43:48.931Z,25.30
2023-01-12T22:46:48.698Z,23.90
2023-01-12T22:52:41.760Z,22.20
2023-01-12T22:58:08.773Z,22.80
2023-01-12T23:00:39.420Z,24.00
2023-01-12T23:03:09.990Z,19.00
2023-01-12T23:05:57.141Z,20.30
2023-01-12T23:08:26.442Z,19.70
2023-01-12T23:11:08.158Z,20.50
2023-01-12T23:13:40.401Z,21.80
2023-01-12T23:16:08.845Z,21.10
2023-01-12T23:18:39.524Z,20.70
2023-01-12T23:21:15.936Z,20.00
2023-01-12T23:23:46.180Z,21.40
2023-01-12T23:28:55.426Z,18.40
2023-01-12T23:31:28.083Z,17.10
2023-01-12T23:33:56.958Z,17.50
2023-01-12T23:36:29.677Z,17.20
2023-01-12T23:39:03.785Z,16.80
2023-01-12T23:41:33.382Z,18.40
2023-01-12T23:44:05.204Z,15.60
2023-01-12T23:46:39.930Z,16.50
2023-01-12T23:49:07.545Z,16.40
2023-01-12T23:51:38.398Z,19.30
2023-01-12T23:54:14.341Z,18.30
2023-01-12T23:56:44.600Z,21.10
2023-01-12T23:59:13.393Z,17.80
